Time;durP1;ratioP1;P1;durP2;ratioP2;P2;SDS_P1;SDS_P2;PMS_P1;PMS_P2;Temp;Humidity;BMP_temperature;BMP_pressure;BME280_temperature;BME280_humidity;BME280_pressure;Samples;Min_cycle;Max_cycle;Signal;HPM_P1;HPM_P2
2023/04/06 00:00:23;;;;;;;6.43;2.80;;;;;;;;;;4972508;28;20488;-66
2023/04/06 00:02:49;;;;;;;5.40;2.80;;;;;;;;;;4973129;28;20110;-67
2023/04/06 00:05:14;;;;;;;4.97;2.42;;;;;;;;;;4972609;28;20178;-67
2023/04/06 00:07:40;;;;;;;5.38;2.42;;;;;;;;;;4973064;28;20106;-67
2023/04/06 00:10:06;;;;;;;4.90;2.40;;;;;;;;;;4972511;28;20450;-66
2023/04/06 00:12:31;;;;;;;4.80;2.40;;;;;;;;;;4972745;28;20513;-66
2023/04/06 00:14:57;;;;;;;4.07;2.25;;;;;;;;;;4972484;28;20026;-68
2023/04/06 00:17:22;;;;;;;5.95;2.67;;;;;;;;;;4972662;28;20019;-67
2023/04/06 00:19:47;;;;;;;6.22;2.75;;;;;;;;;;4972306;28;20027;-67
2023/04/06 00:22:13;;;;;;;6.22;2.47;;;;;;;;;;4972543;28;20018;-68
2023/04/06 00:24:38;;;;;;;4.22;2.35;;;;;;;;;;4972509;28;20496;-68
2023/04/06 00:27:04;;;;;;;4.05;2.40;;;;;;;;;;4972550;28;20019;-65
2023/04/06 00:29:30;;;;;;;4.75;2.50;;;;;;;;;;4972154;28;20395;-68
2023/04/06 00:31:55;;;;;;;5.63;2.38;;;;;;;;;;4972201;28;20034;-67
2023/04/06 00:34:20;;;;;;;3.75;2.20;;;;;;;;;;4972143;28;20384;-67
2023/04/06 00:36:46;;;;;;;3.97;2.30;;;;;;;;;;4972171;28;20089;-68
2023/04/06 00:39:11;;;;;;;4.57;2.40;;;;;;;;;;4972188;28;20387;-67
2023/04/06 00:41:37;;;;;;;4.20;2.20;;;;;;;;;;4972324;28;20018;-68
2023/04/06 00:44:02;;;;;;;6.25;2.10;;;;;;;;;;4972461;28;20050;-67
2023/04/06 00:46:28;;;;;;;4.82;2.00;;;;;;;;;;4971917;28;20040;-66
2023/04/06 00:48:53;;;;;;;4.00;2.20;;;;;;;;;;4970792;28;20073;-67
2023/04/06 00:51:19;;;;;;;4.13;2.38;;;;;;;;;;4971693;28;20030;-68
2023/04/06 00:53:44;;;;;;;3.90;2.10;;;;;;;;;;4971896;28;20475;-65
2023/04/06 00:56:10;;;;;;;4.45;2.20;;;;;;;;;;4971859;28;20019;-67
2023/04/06 00:58:38;;;;;;;6.53;2.40;;;;;;;;;;4971924;28;20023;-67
2023/04/06 01:01:04;;;;;;;3.65;2.05;;;;;;;;;;4971678;28;20031;-68
2023/04/06 01:03:29;;;;;;;4.95;2.13;;;;;;;;;;4971779;28;20037;-68
2023/04/06 01:05:58;;;;;;;4.88;2.20;;;;;;;;;;4971158;28;20034;-68
2023/04/06 01:08:24;;;;;;;4.40;1.95;;;;;;;;;;4971604;28;20027;-67
2023/04/06 01:10:50;;;;;;;5.55;2.13;;;;;;;;;;4971577;28;20038;-66
2023/04/06 01:13:15;;;;;;;4.63;1.92;;;;;;;;;;4971680;28;20053;-66
2023/04/06 01:15:41;;;;;;;4.78;2.00;;;;;;;;;;4971576;28;20570;-67
2023/04/06 01:18:10;;;;;;;3.97;2.03;;;;;;;;;;4970432;28;20090;-66
2023/04/06 01:20:36;;;;;;;3.92;2.10;;;;;;;;;;4971529;28;20137;-67
2023/04/06 01:23:01;;;;;;;4.18;2.40;;;;;;;;;;4971629;28;20660;-66
2023/04/06 01:25:27;;;;;;;5.30;2.38;;;;;;;;;;4971748;28;20038;-67
2023/04/06 01:27:52;;;;;;;4.85;2.40;;;;;;;;;;4971458;28;20533;-67
2023/04/06 01:30:18;;;;;;;4.95;2.28;;;;;;;;;;4971258;28;20595;-66
2023/04/06 01:32:44;;;;;;;3.65;1.90;;;;;;;;;;4971260;28;20070;-68
2023/04/06 01:35:10;;;;;;;3.92;2.10;;;;;;;;;;4971497;28;20443;-67
2023/04/06 01:37:36;;;;;;;3.85;2.00;;;;;;;;;;4970917;28;20507;-66
2023/04/06 01:40:02;;;;;;;4.43;2.10;;;;;;;;;;4971249;28;20459;-67
2023/04/06 01:42:28;;;;;;;4.43;2.10;;;;;;;;;;4970924;28;20509;-65
2023/04/06 01:44:53;;;;;;;4.07;1.90;;;;;;;;;;4971313;28;20022;-65
2023/04/06 01:47:19;;;;;;;4.05;2.08;;;;;;;;;;4970877;28;20531;-67
2023/04/06 01:49:44;;;;;;;3.53;2.03;;;;;;;;;;4971294;28;20030;-67
2023/04/06 01:52:09;;;;;;;4.18;2.10;;;;;;;;;;4970953;28;20027;-67
2023/04/06 01:54:35;;;;;;;3.58;2.20;;;;;;;;;;4971396;28;20102;-66
2023/04/06 01:57:00;;;;;;;3.58;1.90;;;;;;;;;;4970991;28;20437;-67
2023/04/06 01:59:25;;;;;;;5.00;2.33;;;;;;;;;;4970957;28;20030;-67
2023/04/06 02:01:51;;;;;;;3.97;2.15;;;;;;;;;;4970846;28;20427;-67
2023/04/06 02:04:16;;;;;;;4.38;2.20;;;;;;;;;;4970885;28;20050;-67
2023/04/06 02:06:42;;;;;;;4.00;2.20;;;;;;;;;;4970716;28;20058;-66
2023/04/06 02:09:07;;;;;;;4.25;2.40;;;;;;;;;;4971063;28;20019;-68
2023/04/06 02:11:32;;;;;;;4.10;2.00;;;;;;;;;;4970798;28;20027;-66
2023/04/06 02:14:00;;;;;;;4.88;2.20;;;;;;;;;;4971065;28;20027;-66
2023/04/06 02:16:25;;;;;;;4.25;2.20;;;;;;;;;;4970681;28;20030;-68
2023/04/06 02:18:51;;;;;;;4.75;2.22;;;;;;;;;;4974712;28;20035;-67
2023/04/06 02:21:19;;;;;;;4.10;2.10;;;;;;;;;;4974152;28;20391;-67
2023/04/06 02:23:45;;;;;;;5.85;2.15;;;;;;;;;;4974771;28;20035;-68
2023/04/06 02:26:11;;;;;;;3.53;2.10;;;;;;;;;;4974591;28;20022;-67
2023/04/06 02:28:36;;;;;;;3.95;1.92;;;;;;;;;;4974537;28;20030;-67
2023/04/06 02:31:01;;;;;;;4.95;2.00;;;;;;;;;;4974494;28;20018;-66
2023/04/06 02:33:27;;;;;;;4.40;2.10;;;;;;;;;;4974270;28;20525;-68
2023/04/06 02:35:52;;;;;;;4.38;2.13;;;;;;;;;;4974342;28;20113;-67
2023/04/06 02:38:18;;;;;;;4.32;2.00;;;;;;;;;;4974160;28;20023;-68
2023/04/06 02:40:43;;;;;;;4.82;2.40;;;;;;;;;;4974306;28;20027;-67
2023/04/06 02:43:08;;;;;;;5.60;2.30;;;;;;;;;;4972711;28;20034;-67
2023/04/06 02:45:34;;;;;;;3.83;2.33;;;;;;;;;;4974430;28;20117;-67
2023/04/06 02:47:59;;;;;;;4.75;2.30;;;;;;;;;;4974254;28;20118;-67
2023/04/06 02:50:25;;;;;;;4.32;1.92;;;;;;;;;;4974187;28;20023;-67
2023/04/06 02:52:52;;;;;;;3.28;2.40;;;;;;;;;;4973787;28;20069;-67
2023/04/06 02:55:18;;;;;;;3.75;2.15;;;;;;;;;;4974050;28;20159;-68
2023/04/06 02:57:43;;;;;;;3.78;2.20;;;;;;;;;;4973955;28;20072;-67
2023/04/06 03:00:09;;;;;;;4.45;2.20;;;;;;;;;;4974018;28;20077;-67
2023/04/06 03:02:35;;;;;;;4.45;2.15;;;;;;;;;;4973946;28;20042;-68
2023/04/06 03:05:00;;;;;;;4.30;2.10;;;;;;;;;;4974014;28;20043;-67
2023/04/06 03:07:25;;;;;;;4.22;2.17;;;;;;;;;;4973708;28;20023;-68
2023/04/06 03:09:51;;;;;;;3.58;2.25;;;;;;;;;;4973566;28;20533;-67
2023/04/06 03:12:16;;;;;;;3.70;2.05;;;;;;;;;;4973436;28;20057;-67
2023/04/06 03:14:41;;;;;;;4.32;2.13;;;;;;;;;;4973914;28;20035;-67
2023/04/06 03:17:07;;;;;;;6.00;2.38;;;;;;;;;;4973616;28;20395;-67
2023/04/06 03:19:32;;;;;;;4.70;2.17;;;;;;;;;;4973758;28;20115;-66
2023/04/06 03:21:58;;;;;;;5.93;2.17;;;;;;;;;;4973519;28;20034;-68
2023/04/06 03:24:23;;;;;;;5.40;2.20;;;;;;;;;;4973657;28;20034;-67
2023/04/06 03:26:49;;;;;;;5.63;2.17;;;;;;;;;;4973537;28;20511;-68
2023/04/06 03:29:15;;;;;;;4.38;2.15;;;;;;;;;;4972926;28;20438;-67
2023/04/06 03:31:40;;;;;;;4.00;2.00;;;;;;;;;;4973133;28;20610;-67
2023/04/06 03:34:05;;;;;;;6.03;2.08;;;;;;;;;;4973397;28;20027;-68
2023/04/06 03:36:31;;;;;;;3.65;2.35;;;;;;;;;;4973400;28;20078;-67
2023/04/06 03:38:56;;;;;;;4.50;2.20;;;;;;;;;;4973301;28;20050;-67
2023/04/06 03:41:22;;;;;;;5.13;2.60;;;;;;;;;;4973223;28;20082;-68
2023/04/06 03:43:47;;;;;;;5.53;2.65;;;;;;;;;;4973105;28;20165;-68
2023/04/06 03:46:12;;;;;;;6.40;2.42;;;;;;;;;;4973260;28;20026;-66
2023/04/06 03:48:38;;;;;;;4.97;2.50;;;;;;;;;;4973062;28;20562;-68
2023/04/06 03:51:04;;;;;;;7.63;2.53;;;;;;;;;;4972890;28;20153;-66
2023/04/06 03:53:29;;;;;;;7.03;2.60;;;;;;;;;;4973022;28;20027;-66
2023/04/06 03:55:55;;;;;;;4.00;2.42;;;;;;;;;;4973197;28;20529;-68
2023/04/06 03:58:20;;;;;;;6.10;2.60;;;;;;;;;;4973003;28;20018;-68
2023/04/06 04:00:46;;;;;;;6.13;2.80;;;;;;;;;;4972934;28;20626;-68
2023/04/06 04:03:11;;;;;;;5.68;2.90;;;;;;;;;;4972699;28;20031;-68
2023/04/06 04:05:37;;;;;;;5.97;2.90;;;;;;;;;;4972762;28;20529;-67
2023/04/06 04:08:02;;;;;;;6.63;2.92;;;;;;;;;;4972699;28;20034;-68
2023/04/06 04:10:28;;;;;;;7.85;3.17;;;;;;;;;;4972708;28;20034;-68
2023/04/06 04:12:53;;;;;;;6.35;3.00;;;;;;;;;;4972670;28;20031;-66
2023/04/06 04:15:18;;;;;;;6.43;2.90;;;;;;;;;;4972940;28;20029;-68
2023/04/06 04:17:46;;;;;;;7.05;2.95;;;;;;;;;;4972639;28;20037;-67
2023/04/06 04:20:12;;;;;;;6.13;2.85;;;;;;;;;;4972615;28;20023;-67
2023/04/06 04:22:37;;;;;;;7.78;3.08;;;;;;;;;;4972194;28;20042;-67
2023/04/06 04:25:03;;;;;;;6.70;3.97;;;;;;;;;;4972482;28;20027;-66
2023/04/06 04:27:28;;;;;;;5.40;3.20;;;;;;;;;;4972725;28;20038;-67
2023/04/06 04:29:54;;;;;;;6.53;3.10;;;;;;;;;;4972242;28;20471;-67
2023/04/06 04:32:19;;;;;;;6.65;2.75;;;;;;;;;;4972421;28;20073;-67
2023/04/06 04:34:45;;;;;;;5.15;2.90;;;;;;;;;;4972351;28;20483;-69
2023/04/06 04:37:10;;;;;;;8.13;2.97;;;;;;;;;;4972229;28;20121;-67
2023/04/06 04:39:35;;;;;;;8.07;2.90;;;;;;;;;;4971242;28;20035;-65
2023/04/06 04:42:01;;;;;;;8.30;2.97;;;;;;;;;;4971909;28;20027;-69
2023/04/06 04:44:26;;;;;;;7.90;3.00;;;;;;;;;;4972147;28;20038;-66
2023/04/06 04:46:52;;;;;;;4.60;2.55;;;;;;;;;;4972349;28;20114;-67
2023/04/06 04:49:17;;;;;;;3.70;2.47;;;;;;;;;;4971984;28;20033;-69
2023/04/06 04:51:43;;;;;;;5.22;2.72;;;;;;;;;;4971910;28;20031;-68
2023/04/06 04:54:08;;;;;;;6.13;2.70;;;;;;;;;;4971804;28;20114;-68
2023/04/06 04:56:33;;;;;;;4.70;2.50;;;;;;;;;;4971916;28;20065;-68
2023/04/06 04:58:59;;;;;;;4.55;2.22;;;;;;;;;;4971649;28;20026;-68
2023/04/06 05:01:24;;;;;;;4.13;2.28;;;;;;;;;;4971801;28;20037;-67
2023/04/06 05:03:50;;;;;;;4.85;2.20;;;;;;;;;;4971619;28;20050;-68
2023/04/06 05:06:15;;;;;;;5.28;2.50;;;;;;;;;;4971790;28;20034;-68
2023/04/06 05:08:41;;;;;;;4.75;2.42;;;;;;;;;;4971764;28;20030;-68
2023/04/06 05:11:07;;;;;;;4.38;2.60;;;;;;;;;;4971836;28;20027;-68
2023/04/06 05:13:32;;;;;;;4.70;2.58;;;;;;;;;;4971371;28;20077;-67
2023/04/06 05:15:58;;;;;;;5.00;2.85;;;;;;;;;;4971493;28;20034;-66
2023/04/06 05:18:23;;;;;;;5.38;2.80;;;;;;;;;;4971430;28;20022;-70
2023/04/06 05:20:49;;;;;;;4.88;3.00;;;;;;;;;;4971476;28;20027;-67
2023/04/06 05:23:15;;;;;;;5.13;2.60;;;;;;;;;;4971490;28;20039;-68
2023/04/06 05:25:40;;;;;;;6.90;3.20;;;;;;;;;;4971604;28;20023;-67
2023/04/06 05:28:06;;;;;;;4.43;2.58;;;;;;;;;;4971735;28;20390;-68
2023/04/06 05:30:31;;;;;;;5.82;2.65;;;;;;;;;;4971131;28;20046;-68
2023/04/06 05:32:57;;;;;;;3.78;2.17;;;;;;;;;;4971350;28;20831;-68
2023/04/06 05:35:22;;;;;;;6.07;2.80;;;;;;;;;;4971209;28;20073;-68
2023/04/06 05:37:47;;;;;;;9.02;2.80;;;;;;;;;;4971798;28;20019;-66
2023/04/06 05:40:13;;;;;;;5.43;2.80;;;;;;;;;;4971204;28;20037;-67
2023/04/06 05:42:39;;;;;;;6.35;2.92;;;;;;;;;;4971253;28;20034;-66
2023/04/06 05:45:06;;;;;;;6.03;2.55;;;;;;;;;;4971131;28;20034;-67
2023/04/06 05:47:31;;;;;;;5.70;2.85;;;;;;;;;;4971235;28;20030;-68
2023/04/06 05:49:57;;;;;;;10.82;3.35;;;;;;;;;;4970912;28;20081;-67
2023/04/06 05:52:22;;;;;;;12.50;2.83;;;;;;;;;;4970662;28;20019;-68
2023/04/06 05:54:47;;;;;;;6.60;2.72;;;;;;;;;;4971033;28;20022;-68
2023/04/06 05:57:13;;;;;;;5.75;2.90;;;;;;;;;;4971265;28;20035;-67
2023/04/06 05:59:38;;;;;;;4.35;2.72;;;;;;;;;;4970997;28;20018;-68
2023/04/06 06:02:03;;;;;;;5.25;2.90;;;;;;;;;;4971006;28;20452;-68
2023/04/06 06:04:30;;;;;;;5.70;2.92;;;;;;;;;;4970741;28;20055;-67
2023/04/06 06:06:56;;;;;;;9.00;4.03;;;;;;;;;;4970893;28;20030;-68
2023/04/06 06:09:21;;;;;;;7.50;2.67;;;;;;;;;;4970796;28;20554;-68
2023/04/06 06:11:48;;;;;;;6.68;3.03;;;;;;;;;;4970518;28;20031;-66
2023/04/06 06:14:13;;;;;;;6.82;3.65;;;;;;;;;;4970577;28;20026;-68
2023/04/06 06:16:38;;;;;;;6.68;3.40;;;;;;;;;;4971064;28;20081;-67
2023/04/06 06:19:04;;;;;;;6.13;3.10;;;;;;;;;;4970946;28;20030;-67
2023/04/06 06:21:31;;;;;;;9.23;3.60;;;;;;;;;;4970614;28;20034;-67
2023/04/06 06:23:57;;;;;;;6.45;3.00;;;;;;;;;;4970683;28;20748;-67
2023/04/06 06:26:22;;;;;;;6.35;3.20;;;;;;;;;;4970840;28;20058;-66
2023/04/06 06:28:48;;;;;;;6.28;3.10;;;;;;;;;;4970840;28;20486;-66
2023/04/06 06:31:13;;;;;;;6.05;3.17;;;;;;;;;;4970461;28;20023;-66
2023/04/06 06:33:38;;;;;;;9.35;3.08;;;;;;;;;;4970858;28;20098;-65
2023/04/06 06:36:04;;;;;;;10.45;3.10;;;;;;;;;;4970558;28;20031;-66
2023/04/06 06:38:29;;;;;;;7.80;2.80;;;;;;;;;;4970944;28;20022;-65
2023/04/06 06:40:55;;;;;;;6.10;2.72;;;;;;;;;;4970476;28;20027;-66
2023/04/06 06:43:20;;;;;;;6.90;2.85;;;;;;;;;;4970687;28;20082;-67
2023/04/06 06:45:46;;;;;;;6.85;3.00;;;;;;;;;;4970456;28;20553;-67
2023/04/06 06:48:11;;;;;;;6.68;3.20;;;;;;;;;;4969362;28;20069;-68
2023/04/06 06:50:37;;;;;;;7.45;3.35;;;;;;;;;;4970448;28;20031;-67
2023/04/06 06:53:03;;;;;;;7.78;3.53;;;;;;;;;;4969025;28;20406;-67
2023/04/06 06:55:28;;;;;;;8.18;3.20;;;;;;;;;;4970513;28;20054;-66
2023/04/06 06:57:53;;;;;;;7.15;3.10;;;;;;;;;;4970699;28;20026;-67
2023/04/06 07:00:22;;;;;;;14.25;3.40;;;;;;;;;;4970367;28;20074;-66
2023/04/06 07:02:48;;;;;;;12.10;3.15;;;;;;;;;;4970813;28;20088;-67
2023/04/06 07:05:15;;;;;;;8.48;3.28;;;;;;;;;;4973589;28;20125;-67
2023/04/06 07:07:40;;;;;;;9.10;3.00;;;;;;;;;;4973939;28;20026;-68
2023/04/06 07:10:06;;;;;;;7.80;3.22;;;;;;;;;;4973880;28;20031;-68
2023/04/06 07:12:31;;;;;;;8.77;3.38;;;;;;;;;;4973652;28;20030;-68
2023/04/06 07:14:57;;;;;;;7.97;3.70;;;;;;;;;;4973542;28;20031;-67
2023/04/06 07:17:22;;;;;;;5.95;2.70;;;;;;;;;;4973734;28;20058;-69
2023/04/06 07:19:48;;;;;;;8.80;3.33;;;;;;;;;;4973440;28;20487;-68
2023/04/06 07:22:13;;;;;;;8.13;2.90;;;;;;;;;;4973342;28;20066;-68
2023/04/06 07:24:38;;;;;;;8.38;3.10;;;;;;;;;;4973573;28;20113;-67
2023/04/06 07:27:04;;;;;;;5.70;2.88;;;;;;;;;;4973747;28;20051;-68
2023/04/06 07:29:30;;;;;;;8.23;3.13;;;;;;;;;;4973448;28;20042;-68
2023/04/06 07:31:55;;;;;;;7.55;3.00;;;;;;;;;;4973408;28;20035;-67
2023/04/06 07:34:21;;;;;;;7.93;3.00;;;;;;;;;;4973662;28;20045;-68
2023/04/06 07:36:47;;;;;;;7.15;3.20;;;;;;;;;;4973156;28;20035;-68
2023/04/06 07:39:13;;;;;;;6.65;3.00;;;;;;;;;;4973600;28;20026;-68
2023/04/06 07:41:38;;;;;;;6.00;3.30;;;;;;;;;;4973118;28;20562;-68
2023/04/06 07:44:04;;;;;;;8.63;2.80;;;;;;;;;;4973535;28;20035;-67
2023/04/06 07:46:30;;;;;;;5.35;2.80;;;;;;;;;;4973298;28;20035;-67
2023/04/06 07:48:57;;;;;;;9.15;3.10;;;;;;;;;;4973349;28;20034;-67
2023/04/06 07:51:23;;;;;;;5.80;2.90;;;;;;;;;;4972809;28;20043;-69
2023/04/06 07:53:48;;;;;;;10.82;2.90;;;;;;;;;;4973134;28;20085;-68
2023/04/06 07:56:15;;;;;;;7.68;3.00;;;;;;;;;;4972791;28;20475;-67
2023/04/06 07:58:40;;;;;;;6.25;3.00;;;;;;;;;;4973173;28;20471;-66
2023/04/06 08:01:06;;;;;;;10.82;3.17;;;;;;;;;;4972793;28;20042;-67
2023/04/06 08:03:34;;;;;;;8.75;3.05;;;;;;;;;;4972646;28;20039;-68
2023/04/06 08:05:59;;;;;;;6.50;2.97;;;;;;;;;;4971409;28;20027;-68
2023/04/06 08:08:25;;;;;;;9.27;2.90;;;;;;;;;;4972782;28;20651;-68
2023/04/06 08:10:50;;;;;;;14.43;3.33;;;;;;;;;;4972668;28;20031;-68
2023/04/06 08:13:16;;;;;;;7.93;2.88;;;;;;;;;;4971073;28;20510;-67
2023/04/06 08:15:42;;;;;;;7.68;3.10;;;;;;;;;;4971593;28;21203;-67
2023/04/06 08:18:08;;;;;;;9.93;3.10;;;;;;;;;;4972852;28;20023;-68
2023/04/06 08:20:34;;;;;;;8.00;3.20;;;;;;;;;;4972753;28;20026;-68
2023/04/06 08:22:59;;;;;;;8.25;3.03;;;;;;;;;;4971326;28;20027;-68
2023/04/06 08:25:25;;;;;;;8.38;2.88;;;;;;;;;;4972453;28;20081;-68
2023/04/06 08:27:50;;;;;;;15.15;3.53;;;;;;;;;;4972542;28;20027;-66
2023/04/06 08:30:16;;;;;;;10.60;3.15;;;;;;;;;;4972377;28;20023;-68
2023/04/06 08:32:41;;;;;;;4.63;3.08;;;;;;;;;;4970684;28;20023;-66
2023/04/06 08:35:07;;;;;;;9.02;3.58;;;;;;;;;;4972427;28;20111;-67
2023/04/06 08:37:33;;;;;;;10.25;3.45;;;;;;;;;;4972124;28;20031;-66
2023/04/06 08:39:59;;;;;;;8.48;3.22;;;;;;;;;;4972553;28;20029;-67
2023/04/06 08:42:26;;;;;;;10.10;3.58;;;;;;;;;;4971897;28;20573;-67
2023/04/06 08:44:52;;;;;;;9.13;3.20;;;;;;;;;;4972298;28;20511;-66
2023/04/06 08:47:18;;;;;;;9.18;3.13;;;;;;;;;;4971948;28;20027;-68
2023/04/06 08:49:44;;;;;;;13.10;3.58;;;;;;;;;;4972063;28;20571;-68
2023/04/06 08:52:11;;;;;;;10.32;3.30;;;;;;;;;;4971348;28;20113;-67
2023/04/06 08:54:37;;;;;;;10.25;3.65;;;;;;;;;;4972012;28;20038;-68
2023/04/06 08:57:04;;;;;;;7.00;3.05;;;;;;;;;;4971824;28;20027;-67
2023/04/06 08:59:30;;;;;;;9.65;3.10;;;;;;;;;;4971984;28;20503;-67
2023/04/06 09:01:55;;;;;;;10.98;3.47;;;;;;;;;;4971438;28;20030;-67
2023/04/06 09:04:21;;;;;;;7.45;3.28;;;;;;;;;;4971579;28;20118;-68
2023/04/06 09:06:46;;;;;;;6.70;3.33;;;;;;;;;;4971336;28;20423;-68
2023/04/06 09:09:12;;;;;;;9.20;3.35;;;;;;;;;;4971862;28;20027;-68
2023/04/06 09:11:43;;;;;;;6.90;3.30;;;;;;;;;;4971596;28;20031;-68
2023/04/06 09:14:09;;;;;;;6.53;3.17;;;;;;;;;;4971554;28;20061;-67
2023/04/06 09:16:42;;;;;;;9.65;3.30;;;;;;;;;;4971495;28;20519;-66
2023/04/06 09:19:09;;;;;;;5.10;3.15;;;;;;;;;;4971802;28;20030;-66
2023/04/06 09:21:35;;;;;;;7.57;3.60;;;;;;;;;;4971060;28;20038;-66
2023/04/06 09:24:02;;;;;;;10.23;3.90;;;;;;;;;;4971344;28;20061;-66
2023/04/06 09:26:27;;;;;;;8.38;3.88;;;;;;;;;;4971000;28;20122;-68
2023/04/06 09:28:54;;;;;;;8.48;3.58;;;;;;;;;;4971668;28;20133;-66
2023/04/06 09:31:28;;;;;;;8.57;3.80;;;;;;;;;;4971158;28;20034;-67
2023/04/06 09:33:54;;;;;;;7.90;3.50;;;;;;;;;;4971427;28;20038;-66
2023/04/06 09:36:29;;;;;;;10.88;3.67;;;;;;;;;;4971031;28;20031;-68
2023/04/06 09:39:04;;;;;;;8.40;3.47;;;;;;;;;;4971322;28;20058;-68
2023/04/06 09:41:31;;;;;;;10.15;3.70;;;;;;;;;;4970986;28;20034;-68
2023/04/06 09:44:10;;;;;;;8.38;3.53;;;;;;;;;;4971106;28;20557;-67
2023/04/06 09:46:44;;;;;;;5.43;2.90;;;;;;;;;;4971190;28;20038;-67
2023/04/06 09:49:11;;;;;;;6.38;2.78;;;;;;;;;;4971399;28;20031;-67
2023/04/06 09:51:48;;;;;;;5.03;3.00;;;;;;;;;;4970983;28;20035;-67
2023/04/06 09:54:21;;;;;;;4.68;2.50;;;;;;;;;;4971024;28;20027;-67
2023/04/06 09:57:04;;;;;;;6.93;2.97;;;;;;;;;;4970984;28;20038;-67
2023/04/06 10:00:02;;;;;;;8.55;2.80;;;;;;;;;;4971030;28;20038;-68
2023/04/06 10:02:30;;;;;;;7.68;2.67;;;;;;;;;;4970559;28;20031;-67
2023/04/06 10:05:01;;;;;;;7.57;3.20;;;;;;;;;;4971137;28;20126;-67
2023/04/06 10:07:27;;;;;;;8.40;3.40;;;;;;;;;;4970819;28;20027;-67
2023/04/06 10:09:54;;;;;;;9.30;3.35;;;;;;;;;;4971134;28;20031;-68
2023/04/06 10:12:20;;;;;;;7.78;3.20;;;;;;;;;;4970489;28;20522;-67
2023/04/06 10:14:47;;;;;;;8.10;3.60;;;;;;;;;;4970653;28;20046;-68
2023/04/06 10:17:12;;;;;;;9.07;3.50;;;;;;;;;;4970615;28;20090;-67
2023/04/06 10:19:38;;;;;;;8.88;3.35;;;;;;;;;;4970944;28;20561;-68
2023/04/06 10:22:05;;;;;;;7.28;3.10;;;;;;;;;;4970525;28;20427;-68
2023/04/06 10:24:30;;;;;;;8.07;3.20;;;;;;;;;;4970816;28;20054;-68
2023/04/06 10:27:01;;;;;;;9.52;3.20;;;;;;;;;;4970803;28;20065;-68
2023/04/06 10:29:27;;;;;;;7.18;3.22;;;;;;;;;;4970797;28;20143;-67
2023/04/06 10:31:52;;;;;;;8.32;3.08;;;;;;;;;;4970284;28;20059;-68
2023/04/06 10:34:17;;;;;;;8.32;2.42;;;;;;;;;;4970497;28;20491;-69
2023/04/06 10:36:43;;;;;;;8.68;2.70;;;;;;;;;;4970565;28;20023;-67
2023/04/06 10:39:08;;;;;;;9.48;2.03;;;;;;;;;;4971800;28;20029;-67
2023/04/06 10:41:42;;;;;;;3.80;1.88;;;;;;;;;;4974542;28;20399;-66
2023/04/06 10:44:16;;;;;;;5.47;2.10;;;;;;;;;;4974211;28;20034;-67
2023/04/06 10:46:52;;;;;;;4.97;2.08;;;;;;;;;;4974291;28;20122;-67
2023/04/06 10:49:18;;;;;;;4.03;1.95;;;;;;;;;;4974185;28;20049;-67
2023/04/06 10:51:43;;;;;;;5.22;2.00;;;;;;;;;;4974033;28;20550;-67
2023/04/06 10:54:11;;;;;;;5.32;1.95;;;;;;;;;;4973804;28;20038;-66
2023/04/06 10:56:38;;;;;;;4.40;1.90;;;;;;;;;;4974178;28;20030;-66
2023/04/06 10:59:05;;;;;;;3.55;1.75;;;;;;;;;;4974104;28;20570;-67
2023/04/06 11:01:30;;;;;;;3.88;2.00;;;;;;;;;;4974205;28;20033;-67
2023/04/06 11:03:59;;;;;;;5.35;2.25;;;;;;;;;;4973643;28;20054;-67
2023/04/06 11:06:26;;;;;;;4.95;1.80;;;;;;;;;;4973925;28;20035;-68
2023/04/06 11:08:52;;;;;;;6.97;1.73;;;;;;;;;;4973742;28;20109;-67
2023/04/06 11:11:20;;;;;;;3.33;1.85;;;;;;;;;;4973874;28;20027;-66
2023/04/06 11:13:53;;;;;;;4.43;1.80;;;;;;;;;;4973582;28;20045;-67
2023/04/06 11:16:21;;;;;;;6.82;1.73;;;;;;;;;;4973859;28;20030;-67
2023/04/06 11:18:55;;;;;;;5.80;1.95;;;;;;;;;;4973722;28;20430;-68
2023/04/06 11:21:31;;;;;;;8.32;1.85;;;;;;;;;;4973605;28;20030;-68
2023/04/06 11:24:16;;;;;;;3.50;1.63;;;;;;;;;;4973226;28;20391;-67
2023/04/06 11:26:48;;;;;;;3.97;1.88;;;;;;;;;;4973675;28;20023;-67
2023/04/06 11:29:15;;;;;;;5.55;2.13;;;;;;;;;;4971990;28;20027;-67
2023/04/06 11:31:51;;;;;;;3.88;1.83;;;;;;;;;;4973596;28;20503;-67
2023/04/06 11:34:21;;;;;;;3.95;1.70;;;;;;;;;;4973050;28;20063;-66
2023/04/06 11:36:48;;;;;;;4.47;2.00;;;;;;;;;;4973505;28;20090;-66
2023/04/06 11:39:20;;;;;;;4.93;1.80;;;;;;;;;;4973181;28;20023;-68
2023/04/06 11:41:53;;;;;;;5.65;1.80;;;;;;;;;;4973512;28;20057;-67
2023/04/06 11:44:39;;;;;;;2.92;1.65;;;;;;;;;;4972839;28;20093;-69
2023/04/06 11:47:07;;;;;;;4.75;1.70;;;;;;;;;;4971978;28;20046;-69
2023/04/06 11:49:36;;;;;;;5.82;1.70;;;;;;;;;;4972803;28;20030;-67
2023/04/06 11:52:02;;;;;;;3.72;1.58;;;;;;;;;;4973157;28;20024;-68
2023/04/06 11:54:36;;;;;;;2.75;1.45;;;;;;;;;;4972859;28;20053;-68
2023/04/06 11:57:04;;;;;;;4.30;1.70;;;;;;;;;;4973186;28;20027;-67
2023/04/06 11:59:29;;;;;;;3.22;1.50;;;;;;;;;;4972722;28;20054;-67
2023/04/06 12:01:57;;;;;;;3.80;1.60;;;;;;;;;;4972926;28;20104;-67
2023/04/06 12:04:23;;;;;;;4.50;1.45;;;;;;;;;;4972508;28;20055;-67
2023/04/06 12:06:49;;;;;;;3.35;1.70;;;;;;;;;;4972915;28;20163;-67
2023/04/06 12:09:15;;;;;;;4.22;1.35;;;;;;;;;;4972748;28;20026;-66
2023/04/06 12:11:40;;;;;;;2.00;1.20;;;;;;;;;;4972932;28;20038;-67
2023/04/06 12:14:07;;;;;;;3.67;1.20;;;;;;;;;;4972403;28;20101;-67
2023/04/06 12:16:34;;;;;;;2.72;1.40;;;;;;;;;;4971370;28;20130;-69
2023/04/06 12:19:00;;;;;;;2.28;1.15;;;;;;;;;;4972459;28;20109;-68
2023/04/06 12:21:30;;;;;;;3.45;1.10;;;;;;;;;;4972379;28;20077;-67
2023/04/06 12:23:57;;;;;;;2.20;1.17;;;;;;;;;;4972311;28;20045;-68
2023/04/06 12:26:22;;;;;;;3.00;1.25;;;;;;;;;;4972529;28;20031;-67
2023/04/06 12:28:48;;;;;;;2.10;1.25;;;;;;;;;;4972350;28;20035;-67
2023/04/06 12:31:21;;;;;;;3.88;1.40;;;;;;;;;;4972499;28;20162;-69
2023/04/06 12:33:50;;;;;;;2.10;1.30;;;;;;;;;;4970532;28;20073;-67
2023/04/06 12:36:18;;;;;;;4.03;1.38;;;;;;;;;;4972176;28;20038;-66
2023/04/06 12:38:45;;;;;;;2.50;1.23;;;;;;;;;;4972020;28;20035;-68
2023/04/06 12:41:11;;;;;;;4.68;1.23;;;;;;;;;;4972248;28;20065;-68
2023/04/06 12:43:37;;;;;;;3.97;1.30;;;;;;;;;;4971894;28;20055;-67
2023/04/06 12:46:03;;;;;;;2.80;1.30;;;;;;;;;;4972376;28;20153;-67
2023/04/06 12:48:28;;;;;;;4.28;1.08;;;;;;;;;;4972090;28;20546;-68
2023/04/06 12:51:02;;;;;;;4.40;1.15;;;;;;;;;;4971963;28;20058;-67
2023/04/06 12:53:27;;;;;;;4.10;1.40;;;;;;;;;;4971615;28;20042;-68
2023/04/06 12:55:56;;;;;;;2.25;1.02;;;;;;;;;;4971760;28;20081;-68
2023/04/06 12:58:23;;;;;;;4.30;1.20;;;;;;;;;;4971753;28;20046;-67
2023/04/06 13:00:50;;;;;;;2.33;0.98;;;;;;;;;;4971504;28;20336;-68
2023/04/06 13:03:15;;;;;;;2.10;1.20;;;;;;;;;;4971786;28;20030;-67
2023/04/06 13:05:45;;;;;;;2.85;1.10;;;;;;;;;;4971362;28;20038;-68
2023/04/06 13:08:10;;;;;;;3.88;1.20;;;;;;;;;;4970316;28;20037;-68
2023/04/06 13:10:36;;;;;;;2.33;0.90;;;;;;;;;;4971691;28;20038;-68
2023/04/06 13:13:02;;;;;;;3.78;1.10;;;;;;;;;;4971623;28;20070;-68
2023/04/06 13:15:27;;;;;;;2.70;1.20;;;;;;;;;;4971273;28;20023;-67
2023/04/06 13:17:53;;;;;;;2.78;1.20;;;;;;;;;;4971854;28;20037;-68
2023/04/06 13:20:18;;;;;;;2.25;1.15;;;;;;;;;;4970131;28;20110;-67
2023/04/06 13:22:44;;;;;;;1.60;0.95;;;;;;;;;;4971561;28;20109;-67
2023/04/06 13:25:09;;;;;;;2.75;1.10;;;;;;;;;;4971288;28;20038;-67
2023/04/06 13:27:35;;;;;;;2.92;1.00;;;;;;;;;;4971454;28;20026;-67
2023/04/06 13:30:02;;;;;;;2.60;1.02;;;;;;;;;;4971182;28;20027;-67
2023/04/06 13:32:28;;;;;;;2.60;0.98;;;;;;;;;;4971316;28;20050;-67
2023/04/06 13:34:57;;;;;;;1.50;0.88;;;;;;;;;;4971058;28;20105;-68
2023/04/06 13:37:23;;;;;;;2.88;1.27;;;;;;;;;;4971274;28;20025;-68
2023/04/06 13:39:48;;;;;;;1.73;0.95;;;;;;;;;;4971212;28;20098;-67
2023/04/06 13:42:14;;;;;;;1.90;1.10;;;;;;;;;;4971422;28;20026;-67
2023/04/06 13:44:39;;;;;;;1.70;0.98;;;;;;;;;;4970879;28;20498;-67
2023/04/06 13:47:05;;;;;;;3.47;1.10;;;;;;;;;;4971129;28;20035;-68
2023/04/06 13:49:31;;;;;;;2.83;1.17;;;;;;;;;;4969585;28;20062;-68
2023/04/06 13:51:56;;;;;;;2.58;1.10;;;;;;;;;;4970970;28;20062;-67
2023/04/06 13:54:22;;;;;;;3.85;1.25;;;;;;;;;;4970897;28;20034;-68
2023/04/06 13:56:47;;;;;;;2.80;1.02;;;;;;;;;;4971302;28;20035;-67
2023/04/06 13:59:12;;;;;;;4.25;1.20;;;;;;;;;;4970725;28;20031;-68
2023/04/06 14:01:38;;;;;;;1.85;0.90;;;;;;;;;;4971018;28;20035;-67
2023/04/06 14:04:03;;;;;;;4.20;1.08;;;;;;;;;;4970546;28;20130;-67
2023/04/06 14:06:29;;;;;;;4.28;0.90;;;;;;;;;;4970140;28;20023;-68
2023/04/06 14:08:55;;;;;;;1.35;0.77;;;;;;;;;;4969021;28;20073;-67
2023/04/06 14:11:20;;;;;;;3.25;1.08;;;;;;;;;;4970812;28;20058;-68
2023/04/06 14:13:46;;;;;;;2.90;0.98;;;;;;;;;;4974694;28;20093;-68
2023/04/06 14:16:12;;;;;;;1.38;0.80;;;;;;;;;;4974655;28;20554;-68
2023/04/06 14:18:37;;;;;;;1.73;0.90;;;;;;;;;;4974701;28;20023;-67
2023/04/06 14:21:03;;;;;;;3.20;1.00;;;;;;;;;;4974480;28;20022;-68
2023/04/06 14:23:28;;;;;;;1.73;0.82;;;;;;;;;;4974667;28;20038;-68
2023/04/06 14:26:05;;;;;;;2.00;1.10;;;;;;;;;;4974387;28;20491;-67
2023/04/06 14:28:32;;;;;;;3.53;1.50;;;;;;;;;;4974790;28;20030;-68
2023/04/06 14:31:05;;;;;;;2.78;1.10;;;;;;;;;;4974352;28;20101;-67
2023/04/06 14:33:30;;;;;;;2.47;1.02;;;;;;;;;;4974517;28;20038;-68
2023/04/06 14:35:56;;;;;;;1.80;1.00;;;;;;;;;;4974404;28;20086;-67
2023/04/06 14:38:21;;;;;;;1.60;0.90;;;;;;;;;;4974558;28;20471;-67